createdAt,value
2018-07-24T00:01:15.099Z,18.93
2018-07-24T00:03:44.342Z,17.17
2018-07-24T00:06:13.618Z,17.97
2018-07-24T00:08:42.732Z,21.63
2018-07-24T00:11:12.049Z,19.27
2018-07-24T00:13:41.267Z,18.60
2018-07-24T00:16:10.381Z,20.10
2018-07-24T00:18:39.556Z,19.20
2018-07-24T00:21:08.863Z,22.93
2018-07-24T00:23:37.983Z,22.07
2018-07-24T00:26:06.790Z,17.70
2018-07-24T00:28:36.059Z,18.30
2018-07-24T00:31:05.180Z,18.50
2018-07-24T00:33:33.954Z,21.63
2018-07-24T00:36:03.112Z,19.73
2018-07-24T00:38:32.220Z,20.87
2018-07-24T00:41:01.447Z,17.70
2018-07-24T00:43:30.686Z,19.00
2018-07-24T00:45:59.818Z,20.00
2018-07-24T00:48:28.966Z,22.47
2018-07-24T00:50:58.250Z,19.00
2018-07-24T00:53:27.352Z,19.60
2018-07-24T00:55:56.532Z,22.70
2018-07-24T00:58:25.389Z,23.97
2018-07-24T01:00:54.594Z,24.33
2018-07-24T01:03:24.389Z,22.73
2018-07-24T01:05:54.169Z,20.03
2018-07-24T01:08:23.362Z,21.80
2018-07-24T01:10:52.726Z,20.87
2018-07-24T01:13:22.030Z,30.33
2018-07-24T01:15:51.157Z,24.30
2018-07-24T01:18:20.637Z,22.07
2018-07-24T01:20:49.809Z,22.10
2018-07-24T01:23:18.961Z,20.10
2018-07-24T01:25:48.342Z,18.93
2018-07-24T01:28:17.434Z,20.63
2018-07-24T01:30:46.552Z,22.10
2018-07-24T01:33:15.918Z,26.00
2018-07-24T01:35:44.990Z,23.40
2018-07-24T01:38:14.463Z,21.70
2018-07-24T01:40:43.764Z,20.77
2018-07-24T01:43:12.912Z,22.67
2018-07-24T01:45:42.118Z,26.73
2018-07-24T01:48:12.748Z,21.63
2018-07-24T01:50:41.873Z,24.13
2018-07-24T01:53:10.992Z,21.40
2018-07-24T01:55:40.269Z,20.10
2018-07-24T01:58:09.370Z,21.87
2018-07-24T02:00:38.252Z,23.10
2018-07-24T02:03:07.942Z,22.10
2018-07-24T02:05:37.124Z,22.00
2018-07-24T02:08:06.248Z,25.60
2018-07-24T02:10:35.546Z,23.53
2018-07-24T02:13:04.719Z,24.57
2018-07-24T02:15:33.997Z,25.33
2018-07-24T02:18:03.323Z,25.33
2018-07-24T02:20:32.533Z,27.10
2018-07-24T02:23:01.324Z,29.43
2018-07-24T02:25:30.632Z,21.10
2018-07-24T02:28:00.024Z,27.03
2018-07-24T02:30:29.161Z,23.83
2018-07-24T02:32:58.497Z,28.40
2018-07-24T02:35:27.615Z,24.10
2018-07-24T02:37:56.748Z,26.20
2018-07-24T02:40:26.049Z,26.90
2018-07-24T02:42:55.188Z,26.00
2018-07-24T02:45:24.319Z,30.30
2018-07-24T02:47:53.377Z,28.20
2018-07-24T02:50:22.429Z,24.97
2018-07-24T02:52:51.621Z,26.80
2018-07-24T02:55:21.061Z,26.10
2018-07-24T02:57:50.173Z,26.10
2018-07-24T03:00:19.345Z,25.00
2018-07-24T03:02:48.575Z,28.97
2018-07-24T03:05:17.699Z,28.43
2018-07-24T03:07:46.913Z,29.70
2018-07-24T03:10:16.345Z,26.50
2018-07-24T03:12:45.421Z,27.10
2018-07-24T03:15:14.577Z,26.00
2018-07-24T03:17:44.152Z,26.20
2018-07-24T03:20:13.377Z,26.17
2018-07-24T03:22:42.789Z,29.60
2018-07-24T03:25:12.176Z,26.67
2018-07-24T03:27:41.303Z,28.50
2018-07-24T03:30:10.444Z,31.10
2018-07-24T03:32:39.855Z,27.80
2018-07-24T03:35:08.974Z,25.53
2018-07-24T03:37:38.137Z,26.30
2018-07-24T03:40:07.495Z,26.80
2018-07-24T03:42:36.614Z,25.73
2018-07-24T03:45:05.916Z,30.23
2018-07-24T03:47:35.147Z,26.93
2018-07-24T03:50:04.373Z,27.43
2018-07-24T03:52:33.496Z,32.27
2018-07-24T03:55:02.844Z,28.90
2018-07-24T03:57:32.077Z,26.87
2018-07-24T04:00:01.243Z,31.10
2018-07-24T04:02:30.522Z,30.13
2018-07-24T04:04:59.609Z,29.90
2018-07-24T04:07:28.781Z,28.87
2018-07-24T04:09:58.315Z,28.23
2018-07-24T04:12:27.435Z,26.43
2018-07-24T04:14:56.593Z,27.13
2018-07-24T04:17:25.799Z,29.23
2018-07-24T04:19:55.009Z,31.50
2018-07-24T04:22:24.129Z,28.43
2018-07-24T04:24:54.197Z,28.47
2018-07-24T04:27:23.311Z,27.50
2018-07-24T04:29:52.456Z,30.30
2018-07-24T04:32:21.995Z,26.07
2018-07-24T04:34:51.207Z,27.50
2018-07-24T04:37:20.327Z,30.20
2018-07-24T04:39:50.033Z,31.17
2018-07-24T04:42:19.779Z,28.83
2018-07-24T04:44:48.995Z,30.47
2018-07-24T04:47:18.601Z,30.40
2018-07-24T04:49:47.704Z,31.10
2018-07-24T04:52:17.035Z,31.80
2018-07-24T04:54:46.358Z,33.53
2018-07-24T04:57:15.649Z,29.23
2018-07-24T04:59:45.717Z,30.03
2018-07-24T05:02:14.879Z,35.70
2018-07-24T05:04:44.177Z,32.33
2018-07-24T05:07:13.312Z,38.03
2018-07-24T05:09:43.652Z,32.40
2018-07-24T05:12:13.042Z,28.87
2018-07-24T05:14:42.215Z,31.80
2018-07-24T05:17:11.665Z,28.20
2018-07-24T05:19:40.965Z,33.53
2018-07-24T05:22:10.465Z,30.13
2018-07-24T05:24:39.592Z,32.90
2018-07-24T05:27:08.943Z,33.30
2018-07-24T05:29:38.054Z,34.97
2018-07-24T05:32:07.769Z,32.57
2018-07-24T05:34:37.039Z,37.90
2018-07-24T05:37:06.177Z,33.57
2018-07-24T05:39:35.331Z,33.57
2018-07-24T05:42:04.691Z,29.43
2018-07-24T05:44:33.861Z,43.20
2018-07-24T05:47:04.109Z,33.23
2018-07-24T05:49:33.455Z,37.13
2018-07-24T05:52:02.218Z,33.17
2018-07-24T05:54:31.276Z,34.10
2018-07-24T05:57:01.115Z,33.53
2018-07-24T05:59:30.503Z,32.50
2018-07-24T06:01:59.543Z,31.37
2018-07-24T06:04:29.170Z,36.43
2018-07-24T06:06:58.410Z,30.87
2018-07-24T06:09:27.633Z,32.00
2018-07-24T06:11:57.606Z,29.97
2018-07-24T06:14:26.794Z,26.87
2018-07-24T06:16:56.172Z,26.57
2018-07-24T06:19:25.477Z,32.03
2018-07-24T06:21:54.656Z,31.43
2018-07-24T06:24:23.872Z,30.03
2018-07-24T06:26:53.172Z,35.20
2018-07-24T06:29:22.482Z,33.70
2018-07-24T06:31:51.604Z,32.93
2018-07-24T06:34:20.905Z,31.30
2018-07-24T06:36:50.056Z,35.27
2018-07-24T06:39:18.855Z,28.63
2018-07-24T06:41:48.293Z,26.67
2018-07-24T06:44:17.513Z,27.50
2018-07-24T06:46:47.835Z,29.77
2018-07-24T06:49:17.359Z,31.93
2018-07-24T06:51:46.561Z,33.50
2018-07-24T06:54:15.678Z,27.23
2018-07-24T06:56:44.935Z,28.13
2018-07-24T06:59:14.041Z,27.77
2018-07-24T07:01:43.151Z,27.60
2018-07-24T07:04:12.325Z,29.57
2018-07-24T07:06:41.467Z,31.13
2018-07-24T07:09:10.621Z,27.63
2018-07-24T07:11:40.027Z,26.00
2018-07-24T07:14:09.111Z,23.90
2018-07-24T07:16:38.251Z,22.23
2018-07-24T07:19:07.815Z,22.63
2018-07-24T07:21:36.923Z,27.23
2018-07-24T07:24:05.760Z,19.90
2018-07-24T07:26:35.107Z,26.93
2018-07-24T07:29:04.265Z,20.90
2018-07-24T07:31:34.496Z,21.50
2018-07-24T07:34:08.775Z,21.20
2018-07-24T07:36:38.275Z,25.30
2018-07-24T07:39:11.515Z,22.97
2018-07-24T07:41:40.889Z,22.23
2018-07-24T07:44:12.107Z,20.30
2018-07-24T07:46:40.902Z,27.03
2018-07-24T07:49:09.980Z,24.27
2018-07-24T07:51:38.933Z,23.63
2018-07-24T07:54:10.313Z,23.20
2018-07-24T07:56:40.665Z,23.50
2018-07-24T08:02:15.527Z,23.43
2018-07-24T08:04:44.649Z,20.63
2018-07-24T08:07:20.211Z,18.10
2018-07-24T08:09:49.359Z,17.17
2018-07-24T08:12:18.492Z,17.73
2018-07-24T08:14:55.424Z,17.33
2018-07-24T08:17:24.533Z,18.17
2018-07-24T08:19:54.216Z,20.20
2018-07-24T08:22:23.516Z,16.03
2018-07-24T08:24:53.825Z,16.30
2018-07-24T08:27:24.837Z,17.43
2018-07-24T08:29:53.973Z,19.43
2018-07-24T08:32:23.240Z,12.83
2018-07-24T08:34:52.743Z,17.03
2018-07-24T08:37:22.225Z,14.47
2018-07-24T08:40:08.577Z,14.90
2018-07-24T08:42:38.149Z,14.57
2018-07-24T08:45:24.118Z,16.37
2018-07-24T08:47:53.634Z,12.57
2018-07-24T08:50:33.978Z,15.00
2018-07-24T08:53:09.027Z,14.47
2018-07-24T08:55:44.300Z,16.80
2018-07-24T08:58:13.698Z,14.60
2018-07-24T09:00:42.951Z,16.03
2018-07-24T09:03:12.857Z,18.33
2018-07-24T09:05:43.045Z,14.03
2018-07-24T09:08:12.166Z,12.63
2018-07-24T09:10:48.786Z,12.43
2018-07-24T09:13:17.906Z,11.67
2018-07-24T09:15:57.332Z,13.90
2018-07-24T09:18:26.460Z,15.03
2018-07-24T09:20:55.536Z,13.60
2018-07-24T09:23:24.806Z,12.93
2018-07-24T09:25:54.188Z,12.37
2018-07-24T09:28:40.225Z,13.10
2018-07-24T09:31:09.658Z,12.93
2018-07-24T09:33:56.159Z,14.87
2018-07-24T09:36:26.440Z,12.90
2018-07-24T09:39:04.407Z,13.50
2018-07-24T09:41:33.807Z,14.53
2018-07-24T09:44:03.118Z,13.47
2018-07-24T09:46:32.154Z,19.90
2018-07-24T09:49:02.178Z,11.97
2018-07-24T09:51:53.917Z,14.03
2018-07-24T09:54:22.892Z,13.47
2018-07-24T09:56:57.579Z,14.60
2018-07-24T09:59:26.994Z,13.93
2018-07-24T10:01:56.022Z,12.60
2018-07-24T10:04:25.535Z,14.60
2018-07-24T10:06:55.816Z,17.30
2018-07-24T10:09:27.275Z,12.40
2018-07-24T10:11:56.596Z,15.47
2018-07-24T10:14:30.191Z,14.23
2018-07-24T10:16:59.478Z,14.00
2018-07-24T10:19:29.149Z,13.70
2018-07-24T10:21:58.369Z,15.93
2018-07-24T10:24:31.907Z,16.93
2018-07-24T10:27:01.054Z,14.17
2018-07-24T10:29:36.608Z,12.30
2018-07-24T10:32:05.836Z,13.70
2018-07-24T10:34:47.336Z,14.10
2018-07-24T10:37:16.538Z,13.60
2018-07-24T10:39:45.759Z,12.83
2018-07-24T10:42:14.565Z,13.13
2018-07-24T10:44:43.812Z,13.80
2018-07-24T10:47:12.916Z,12.40
2018-07-24T10:49:43.150Z,15.33
2018-07-24T10:52:12.609Z,17.63
2018-07-24T10:54:46.238Z,13.70
2018-07-24T10:57:15.588Z,13.00
2018-07-24T10:59:49.893Z,12.77
2018-07-24T11:02:19.161Z,12.80
2018-07-24T11:04:48.949Z,12.87
2018-07-24T11:07:18.076Z,12.63
2018-07-24T11:12:41.389Z,11.73
2018-07-24T11:15:10.147Z,13.60
2018-07-24T11:17:39.367Z,11.50
2018-07-24T11:20:14.107Z,12.27
2018-07-24T11:22:43.381Z,11.27
2018-07-24T11:25:16.710Z,10.30
2018-07-24T11:27:46.575Z,12.60
2018-07-24T11:30:16.762Z,10.23
2018-07-24T11:32:46.625Z,18.53
2018-07-24T11:35:16.010Z,10.87
2018-07-24T11:37:44.765Z,9.97
2018-07-24T11:40:14.165Z,9.73
2018-07-24T11:42:43.289Z,9.73
2018-07-24T11:45:23.514Z,11.43
2018-07-24T11:47:55.794Z,9.40
2018-07-24T11:50:27.633Z,10.23
2018-07-24T11:52:56.773Z,10.20
2018-07-24T11:55:26.551Z,10.50
2018-07-24T11:57:56.449Z,9.00
2018-07-24T12:00:29.013Z,8.47
2018-07-24T12:02:59.112Z,10.00
2018-07-24T12:05:30.457Z,9.97
2018-07-24T12:07:59.485Z,11.37
2018-07-24T12:12:36.133Z,12.43
2018-07-24T12:15:05.323Z,11.13
2018-07-24T12:17:34.388Z,10.67
2018-07-24T12:20:03.754Z,10.00
2018-07-24T12:22:34.717Z,15.20
2018-07-24T12:25:04.056Z,8.80
2018-07-24T12:27:33.202Z,9.03
2018-07-24T12:30:14.739Z,8.07
2018-07-24T12:32:44.646Z,9.10
2018-07-24T12:38:18.608Z,8.73
2018-07-24T12:40:48.482Z,9.00
2018-07-24T12:46:18.172Z,9.10
2018-07-24T12:48:47.334Z,7.73
2018-07-24T12:51:30.196Z,8.43
2018-07-24T12:54:00.156Z,8.23
2018-07-24T12:56:42.268Z,8.20
2018-07-24T12:59:12.662Z,10.13
2018-07-24T13:01:43.702Z,9.50
2018-07-24T13:04:25.637Z,8.53
2018-07-24T13:06:55.559Z,8.90
2018-07-24T13:12:27.328Z,8.00
2018-07-24T13:14:56.656Z,9.17
2018-07-24T13:17:38.626Z,9.20
2018-07-24T13:20:08.944Z,11.23
2018-07-24T13:22:37.741Z,8.90
2018-07-24T13:25:06.906Z,8.40
2018-07-24T13:27:36.184Z,8.50
2018-07-24T13:30:05.635Z,8.40
2018-07-24T13:32:34.888Z,8.70
2018-07-24T13:35:04.594Z,8.50
2018-07-24T13:37:33.813Z,8.17
2018-07-24T13:40:03.008Z,8.03
2018-07-24T13:42:32.320Z,7.60
2018-07-24T13:45:01.525Z,12.40
2018-07-24T13:47:30.616Z,8.53
2018-07-24T13:49:59.913Z,8.43
2018-07-24T13:52:29.036Z,7.07
2018-07-24T13:54:58.133Z,9.10
2018-07-24T13:57:27.407Z,9.23
2018-07-24T13:59:56.622Z,9.50
2018-07-24T14:02:25.435Z,9.20
2018-07-24T14:04:54.828Z,9.13
2018-07-24T14:07:23.574Z,8.43
2018-07-24T14:09:52.619Z,8.13
2018-07-24T14:12:21.878Z,8.73
2018-07-24T14:14:50.980Z,8.97
2018-07-24T14:17:20.126Z,7.80
2018-07-24T14:19:49.452Z,11.50
2018-07-24T14:22:18.592Z,10.90
2018-07-24T14:24:47.411Z,8.73
2018-07-24T14:27:16.706Z,9.03
2018-07-24T14:29:45.886Z,8.77
2018-07-24T14:32:15.051Z,10.63
2018-07-24T14:34:45.330Z,7.70
2018-07-24T14:37:15.818Z,7.67
2018-07-24T14:39:45.782Z,7.20
2018-07-24T14:42:20.403Z,7.30
2018-07-24T14:44:51.080Z,6.87
2018-07-24T14:47:20.727Z,7.47
2018-07-24T14:49:50.063Z,6.73
2018-07-24T14:52:20.486Z,7.37
2018-07-24T14:54:50.673Z,8.03
2018-07-24T14:57:21.427Z,7.30
2018-07-24T14:59:50.923Z,7.20
2018-07-24T15:02:28.052Z,7.70
2018-07-24T15:04:59.925Z,17.73
2018-07-24T15:07:29.372Z,17.00
2018-07-24T15:09:58.975Z,7.17
2018-07-24T15:12:29.133Z,7.20
2018-07-24T15:14:58.669Z,7.30
2018-07-24T15:17:28.277Z,7.20
2018-07-24T15:19:58.146Z,7.53
2018-07-24T15:22:28.035Z,14.13
2018-07-24T15:24:57.669Z,6.73
2018-07-24T15:27:27.541Z,7.10
2018-07-24T15:30:07.734Z,6.70
2018-07-24T15:32:38.797Z,7.20
2018-07-24T15:35:09.391Z,6.80
2018-07-24T15:37:39.686Z,7.20
2018-07-24T15:40:08.774Z,7.17
2018-07-24T15:42:37.829Z,8.90
2018-07-24T15:45:13.871Z,7.20
2018-07-24T15:47:43.276Z,16.13
2018-07-24T15:50:14.153Z,37.03
2018-07-24T15:52:43.942Z,8.10
2018-07-24T15:55:13.989Z,7.00
2018-07-24T15:57:43.666Z,7.30
2018-07-24T16:00:12.799Z,7.60
2018-07-24T16:02:41.917Z,26.20
2018-07-24T16:05:11.822Z,7.03
2018-07-24T16:07:41.443Z,7.73
2018-07-24T16:10:10.694Z,6.57
2018-07-24T16:12:41.307Z,6.77
2018-07-24T16:15:10.591Z,9.97
2018-07-24T16:17:40.725Z,7.10
2018-07-24T16:20:10.107Z,6.37
2018-07-24T16:22:39.904Z,7.83
2018-07-24T16:25:08.793Z,7.33
2018-07-24T16:27:38.491Z,7.80
2018-07-24T16:30:07.982Z,9.20
2018-07-24T16:32:37.991Z,7.67
2018-07-24T16:35:07.151Z,6.50
2018-07-24T16:37:36.829Z,6.60
2018-07-24T16:40:11.154Z,8.73
2018-07-24T16:42:41.460Z,12.07
2018-07-24T16:45:10.649Z,8.90
2018-07-24T16:47:39.775Z,7.50
2018-07-24T16:50:09.250Z,6.97
2018-07-24T16:52:38.009Z,7.50
2018-07-24T16:55:07.077Z,7.30
2018-07-24T16:57:36.619Z,7.20
2018-07-24T17:00:06.223Z,7.13
2018-07-24T17:02:35.503Z,7.37
2018-07-24T17:05:04.996Z,7.87
2018-07-24T17:07:34.124Z,7.33
2018-07-24T17:10:03.295Z,7.10
2018-07-24T17:12:32.797Z,6.47
2018-07-24T17:15:01.884Z,7.17
2018-07-24T17:17:31.053Z,7.03
2018-07-24T17:20:00.294Z,6.60
2018-07-24T17:22:29.436Z,7.77
2018-07-24T17:24:58.695Z,6.57
2018-07-24T17:27:28.061Z,8.93
2018-07-24T17:29:56.797Z,7.90
2018-07-24T17:32:30.957Z,6.77
2018-07-24T17:35:01.493Z,7.57
2018-07-24T17:37:30.639Z,6.97
2018-07-24T17:40:00.377Z,6.53
2018-07-24T17:42:30.065Z,6.27
2018-07-24T17:44:59.568Z,7.00
2018-07-24T17:47:29.626Z,6.73
2018-07-24T17:49:59.204Z,10.17
2018-07-24T17:52:28.592Z,7.37
2018-07-24T17:55:03.857Z,6.10
2018-07-24T17:57:35.593Z,6.50
2018-07-24T18:00:05.358Z,6.00
2018-07-24T18:02:54.683Z,6.30
2018-07-24T18:05:25.481Z,6.27
2018-07-24T18:07:54.959Z,5.90
2018-07-24T18:10:32.396Z,5.77
2018-07-24T18:13:01.611Z,6.93
2018-07-24T18:15:32.647Z,11.03
2018-07-24T18:18:04.471Z,6.93
2018-07-24T18:20:33.840Z,6.60
2018-07-24T18:23:06.448Z,7.10
2018-07-24T18:25:35.588Z,7.33
2018-07-24T18:28:21.411Z,7.20
2018-07-24T18:30:50.794Z,7.30
2018-07-24T18:33:20.089Z,7.20
2018-07-24T18:35:49.251Z,7.00
2018-07-24T18:38:18.484Z,7.47
2018-07-24T18:40:47.279Z,8.07
2018-07-24T18:43:16.532Z,7.50
2018-07-24T18:45:45.841Z,7.73
2018-07-24T18:48:15.014Z,8.30
2018-07-24T18:50:44.292Z,7.77
2018-07-24T18:53:13.732Z,8.40
2018-07-24T18:55:43.013Z,11.30
2018-07-24T18:58:12.297Z,7.60
2018-07-24T19:00:41.808Z,8.30
2018-07-24T19:03:11.009Z,7.97
2018-07-24T19:05:40.149Z,8.47
2018-07-24T19:08:09.491Z,12.73
2018-07-24T19:10:38.670Z,8.17
2018-07-24T19:13:07.505Z,8.80
2018-07-24T19:15:36.827Z,9.67
2018-07-24T19:18:06.067Z,8.20
2018-07-24T19:20:34.831Z,8.37
2018-07-24T19:23:04.058Z,7.93
2018-07-24T19:25:33.190Z,7.87
2018-07-24T19:28:02.317Z,12.00
2018-07-24T19:30:31.575Z,8.87
2018-07-24T19:33:00.681Z,8.63
2018-07-24T19:35:29.835Z,8.87
2018-07-24T19:37:59.145Z,8.43
2018-07-24T19:40:28.295Z,7.80
2018-07-24T19:42:57.513Z,8.97
2018-07-24T19:45:26.939Z,13.17
2018-07-24T19:47:55.989Z,10.13
2018-07-24T19:50:25.154Z,13.00
2018-07-24T19:53:00.247Z,10.83
2018-07-24T19:55:29.829Z,13.97
2018-07-24T19:57:59.385Z,9.30
2018-07-24T20:00:28.791Z,9.97
2018-07-24T20:02:58.407Z,9.40
2018-07-24T20:05:28.639Z,11.13
2018-07-24T20:07:57.825Z,10.57
2018-07-24T20:10:26.987Z,9.07
2018-07-24T20:12:56.481Z,9.90
2018-07-24T20:15:25.751Z,11.13
2018-07-24T20:17:55.487Z,9.93
2018-07-24T20:20:24.839Z,12.87
2018-07-24T20:22:55.508Z,12.80
2018-07-24T20:25:25.495Z,12.77
2018-07-24T20:27:54.625Z,12.13
2018-07-24T20:30:23.801Z,11.17
2018-07-24T20:32:53.293Z,14.67
2018-07-24T20:35:22.550Z,11.90
2018-07-24T20:37:52.203Z,14.93
2018-07-24T20:40:21.537Z,16.53
2018-07-24T20:42:50.759Z,11.17
2018-07-24T20:45:19.886Z,14.93
2018-07-24T20:47:49.315Z,11.77
2018-07-24T20:50:18.489Z,13.27
2018-07-24T20:52:47.651Z,10.30
2018-07-24T20:55:16.721Z,11.23
2018-07-24T20:57:45.744Z,16.03
2018-07-24T21:00:14.925Z,11.90
2018-07-24T21:02:44.413Z,12.87
2018-07-24T21:05:13.665Z,18.20
2018-07-24T21:07:42.789Z,12.50
2018-07-24T21:10:17.941Z,11.47
2018-07-24T21:12:48.399Z,11.90
2018-07-24T21:15:17.947Z,14.87
2018-07-24T21:17:47.225Z,21.30
2018-07-24T21:20:17.123Z,10.93
2018-07-24T21:22:46.198Z,11.90
2018-07-24T21:25:15.287Z,11.73
2018-07-24T21:27:44.481Z,11.30
2018-07-24T21:30:13.805Z,11.83
2018-07-24T21:32:43.169Z,13.33
2018-07-24T21:35:12.295Z,16.30
2018-07-24T21:37:41.681Z,13.80
2018-07-24T21:40:11.219Z,11.93
2018-07-24T21:42:40.364Z,12.13
2018-07-24T21:45:09.850Z,18.83
2018-07-24T21:47:38.996Z,11.57
2018-07-24T21:50:08.367Z,11.37
2018-07-24T21:52:37.645Z,11.77
2018-07-24T21:55:06.775Z,12.63
2018-07-24T21:57:35.929Z,11.83
2018-07-24T22:00:08.156Z,12.40
2018-07-24T22:02:37.311Z,11.40
2018-07-24T22:05:06.792Z,11.30
2018-07-24T22:07:36.737Z,14.90
2018-07-24T22:10:11.333Z,11.90
2018-07-24T22:12:40.341Z,10.77
2018-07-24T22:15:14.618Z,12.80
2018-07-24T22:17:44.132Z,13.90
2018-07-24T22:20:12.924Z,11.33
2018-07-24T22:22:42.012Z,15.40
2018-07-24T22:25:21.810Z,13.20
2018-07-24T22:27:51.952Z,11.70
2018-07-24T22:30:23.149Z,11.80
2018-07-24T22:32:52.407Z,18.30
2018-07-24T22:35:21.667Z,12.53
2018-07-24T22:37:50.805Z,11.73
2018-07-24T22:40:20.751Z,13.80
2018-07-24T22:42:49.911Z,12.63
2018-07-24T22:45:19.047Z,13.20
2018-07-24T22:47:48.619Z,13.33
2018-07-24T22:50:19.058Z,14.47
2018-07-24T22:52:48.149Z,12.73
2018-07-24T22:55:17.637Z,15.83
2018-07-24T22:57:46.753Z,14.87
2018-07-24T23:00:17.332Z,18.40
2018-07-24T23:02:46.623Z,16.57
2018-07-24T23:05:15.779Z,20.67
2018-07-24T23:07:46.069Z,22.00
2018-07-24T23:10:15.587Z,21.07
2018-07-24T23:12:44.931Z,19.80
2018-07-24T23:15:14.072Z,17.77
2018-07-24T23:17:43.429Z,17.77
2018-07-24T23:20:12.227Z,15.33
2018-07-24T23:22:41.317Z,19.87
2018-07-24T23:25:12.012Z,15.77
2018-07-24T23:27:41.147Z,15.30
2018-07-24T23:30:10.307Z,16.93
2018-07-24T23:32:40.063Z,15.00
2018-07-24T23:35:09.199Z,17.10
2018-07-24T23:37:38.325Z,16.20
2018-07-24T23:40:07.951Z,16.20
2018-07-24T23:42:37.253Z,17.63
2018-07-24T23:45:06.401Z,16.30
2018-07-24T23:47:35.699Z,17.83
2018-07-24T23:50:05.009Z,14.10
2018-07-24T23:52:34.517Z,15.60
2018-07-24T23:55:03.883Z,14.67
2018-07-24T23:57:32.989Z,18.90
